• Join FlightAware (Why Join?)
  • Login
  • US Flag 
04:28AM EDT


 

Airport Tracker/Info


-or-


 

Live Flight TrackerFlight Track Log ✈ EGF4174 ✈ 23-Apr-2013 ✈ KSYR - KORD

Flight Track Log - Related Links

Times and Time Zones

All times are in EDT time to prevent confusion due to time zone crossing. See the EGF4174 flight status page for this flight to view local times or setup timezone preferences in your user account.

Time Position Orientation Groundspeed Altitude Reporting Facility
EDT Latitude Longitude Course Direction KTS MPH feet Rate Location/Type
05:46PM 43.1089 -76.0950 286° West 146 168 1,100  Level Boston Center
05:47PM 43.1294 -76.0392 63° Northeast 212 244 2,900 2,100 Climbing Boston Center
05:48PM 43.1625 -76.1067 304° West 269 310 5,200 1,980 Climbing Boston Center
05:49PM 43.1833 -76.4229 270° West  Level FlightAware Approximate
05:50PM 43.2040 -76.5280 281° West  Level FlightAware Approximate
05:51PM 43.2222 -76.6425 286° West  Level FlightAware Approximate
05:51PM 43.1625 -76.3589 270° West 272 313 10,000  Level Cleveland Center
05:52PM 43.2464 -76.7551 286° West  Level FlightAware Approximate
05:52PM 43.1589 -76.4844 268° West 302 348 11,600  Level Cleveland Center
05:53PM 43.1547 -76.6072 267° West 324 373 13,300 1,440 Climbing Cleveland Center
05:54PM 43.1525 -76.7242 269° West 330 380 14,500 1,380 Climbing Cleveland Center
05:55PM 43.1503 -76.8522 269° West 336 387 16,100 1,500 Climbing Cleveland Center
05:56PM 43.1483 -76.9806 269° West 336 387 17,600 1,680 Climbing Cleveland Center
05:57PM 43.1458 -77.1117 269° West 346 398 19,500 1,800 Climbing Cleveland Center
05:58PM 43.1433 -77.2397 269° West 346 398 21,300 1,200 Climbing Cleveland Center
05:59PM 43.1408 -77.3708 269° West 346 398 22,000 300 Climbing Cleveland Center
06:00PM 43.1367 -77.5161 268° West 364 419 22,000  Level Cleveland Center
06:01PM 43.1342 -77.6700 269° West 390 449 22,000  Level Cleveland Center
06:02PM 43.1317 -77.8181 269° West 398 458 22,000  Level Cleveland Center
06:03PM 43.1267 -77.9689 267° West 403 464 22,000  Level Cleveland Center
06:04PM 43.1239 -78.1200 269° West 403 464 22,000  Level Cleveland Center
06:05PM 43.1228 -78.2708 269° West 403 464 22,000  Level Cleveland Center
06:06PM 43.1219 -78.4414 270° West 403 464 22,000  Level Cleveland Center
06:07PM 43.1183 -78.5953 268° West 403 464 22,000  Level Cleveland Center
06:08PM 43.1125 -78.7489 267° West 403 464 22,000  Level Cleveland Center
06:09PM 43.1000 -78.9500 265° West 390 449 22,000  Level Toronto Center
06:10PM 43.1000 -79.1000 270° West 390 449 22,000  Level Toronto Center
06:11PM 43.1000 -79.2500 270° West 380 437 22,000 120 Level Toronto Center
06:12PM 43.0833 -79.3833 260° West 380 437 22,300 840 Climbing Toronto Center
06:13PM 43.0833 -79.5500 270° West 390 449 23,700 1,800 Climbing Toronto Center
06:14PM 43.0833 -79.6833 270° West 370 426 25,900 2,100 Climbing Toronto Center
06:15PM 43.0833 -79.8000 270° West 340 391 27,900 1,740 Climbing Toronto Center
06:16PM 43.0667 -79.9333 260° West 320 368 29,400 1,260 Climbing Toronto Center
06:17PM 43.0667 -80.0500 270° West 320 368 30,500 1,020 Climbing Toronto Center
06:18PM 43.0667 -80.1833 270° West 330 380 31,500 720 Climbing Toronto Center
06:19PM 43.0667 -80.3000 270° West 340 391 32,000 240 Climbing Toronto Center
06:20PM 43.0667 -80.4333 270° West 340 391 32,000  Level Toronto Center
06:21PM 43.0500 -80.5667 260° West 350 403 32,000  Level Toronto Center
06:22PM 43.0500 -80.6833 270° West 350 403 32,000  Level Toronto Center
06:23PM 43.0333 -80.8167 260° West 340 391 32,000  Level Toronto Center
06:24PM 43.0333 -80.9500 270° West 340 391 32,000  Level Toronto Center
06:25PM 43.0167 -81.1000 261° West 350 403 32,000  Level Toronto Center
06:26PM 43.0167 -81.2333 270° West 350 403 32,000  Level Toronto Center
06:27PM 43.0167 -81.3667 270° West 350 403 32,000  Level Toronto Center
06:28PM 43.0167 -81.4833 270° West 350 403 32,000  Level Toronto Center
06:29PM 43.0167 -81.6167 270° West 350 403 32,000  Level Toronto Center
06:30PM 43.0167 -81.7500 270° West 350 403 32,000  Level Toronto Center
06:31PM 43.0167 -81.8833 270° West 340 391 32,000  Level Toronto Center
06:32PM 43.0000 -82.0000 259° West 350 403 32,000  Level Toronto Center
06:33PM 43.0000 -82.1333 270° West 340 391 32,000  Level Toronto Center
06:34PM 43.0000 -82.2833 270° West 340 391 32,000  Level Toronto Center
06:35PM 43.0000 -82.3833 270° West 340 391 32,000  Level Toronto Center
06:36PM 43.0000 -82.5333 270° West 340 391 32,000  Level Toronto Center
06:37PM 43.0003 -82.6469 270° West 349 402 32,000  Level Cleveland Center
06:38PM 42.9936 -82.7803 266° West 349 402 32,000  Level Cleveland Center
06:39PM 42.9869 -82.9047 266° West 349 402 32,000  Level Cleveland Center
06:40PM 42.9800 -83.0381 266° West 349 402 32,000  Level Cleveland Center
06:41PM 42.9711 -83.1625 264° West 349 402 32,000  Level Cleveland Center
06:42PM 42.9639 -83.2928 266° West 349 402 32,000  Level Cleveland Center
06:43PM 42.9589 -83.4231 267° West 349 402 32,000  Level Cleveland Center
06:44PM 42.9472 -83.5531 263° West 349 402 32,000  Level Cleveland Center
06:45PM 42.9417 -83.6833 267° West 349 402 32,000  Level Cleveland Center
06:46PM 42.9319 -83.8133 264° West 349 402 32,000  Level Cleveland Center
06:47PM 42.9242 -83.9403 265° West 349 402 32,000  Level Cleveland Center
06:49PM 42.9114 -84.1719 266° West 344 396 32,000  Level Chicago Center
06:50PM 42.9031 -84.3025 265° West 341 392 32,000  Level Chicago Center
06:51PM 42.8953 -84.4289 265° West 342 394 32,000  Level Chicago Center
06:52PM 42.8858 -84.5572 264° West 341 392 32,000  Level Chicago Center
06:53PM 42.8708 -84.7125 263° West 345 397 32,000  Level Chicago Center
06:54PM 42.8572 -84.8397 262° West 341 392 32,000  Level Chicago Center
06:55PM 42.8439 -84.9681 262° West 344 396 32,000  Level Chicago Center
06:56PM 42.8275 -85.0953 260° West 343 395 32,000  Level Chicago Center
06:57PM 42.8042 -85.2217 256° West 343 395 32,000  Level Chicago Center
06:58PM 42.7811 -85.3486 256° West 344 396 32,000  Level Chicago Center
06:59PM 42.7600 -85.4747 257° West 344 396 32,000 -420 Level Chicago Center
07:00PM 42.7314 -85.6275 256° West 345 397 31,200 -1,500 Descending Chicago Center
07:01PM 42.7078 -85.7625 257° West 358 412 28,900 -2,280 Descending Chicago Center
07:02PM 42.6833 -85.9008 257° West 369 425 26,500 -2,280 Descending Chicago Center
07:03PM 42.6569 -86.0400 256° West 376 433 24,200 -2,280 Descending Chicago Center
07:04PM 42.6333 -86.1736 257° West 366 421 21,800 -2,220 Descending Chicago Center
07:05PM 42.6078 -86.3058 255° West 362 417 19,700 -1,980 Descending Chicago Center
07:06PM 42.5844 -86.4303 256° West 347 399 17,800 -1,920 Descending Chicago Center
07:07PM 42.5608 -86.5553 256° West 343 395 15,800 -1,980 Descending Chicago Center
07:08PM 42.5344 -86.7031 256° West 337 388 13,700 -1,800 Descending Chicago Center
07:09PM 42.5119 -86.8203 255° West 324 373 12,100 -1,500 Descending Chicago Center
07:10PM 42.4892 -86.9383 255° West 324 373 10,700 -1,020 Descending Chicago Center
07:11PM 42.4664 -87.0533 255° West 319 367 10,000 -360 Descending Chicago Center
07:12PM 42.4414 -87.1656 253° West 314 361 10,000 -540 Level Chicago Center
07:14PM 42.4125 -87.2689 249° West 248 285 9,000 -1,260 Descending Chicago Center
07:15PM 42.3600 -87.3192 215° Southwest 245 282 7,500 -1,320 Descending Chicago Center
07:16PM 42.2956 -87.3592 205° Southwest 244 281 6,300 -1,080 Descending Chicago Center
07:17PM 42.2339 -87.4011 207° Southwest 249 287 5,300 -1,020 Descending Chicago Center
07:18PM 42.1633 -87.4161 189° South 256 295 4,300 -600 Descending Chicago Center
07:19PM 42.0667 -87.4333 188° South 267 307 4,000 -180 Descending Chicago TRACON
07:20PM 42.0000 -87.4500 191° South 244 281 4,000  Level Chicago TRACON
07:21PM 41.9833 -87.5167 251° West 217 250 4,000  Level Chicago TRACON
07:22PM 41.9833 -87.6000 270° West 195 224 4,100 60 Climbing Chicago TRACON